createdAt,value
2019-03-08T00:04:49.299Z,1.52
2019-03-08T00:09:56.984Z,1.70
2019-03-08T00:15:04.141Z,1.45
2019-03-08T00:20:11.332Z,1.74
2019-03-08T00:25:18.512Z,1.84
2019-03-08T00:30:26.591Z,1.56
2019-03-08T00:35:33.712Z,1.54
2019-03-08T00:40:41.015Z,1.66
2019-03-08T00:45:48.132Z,1.79
2019-03-08T00:50:55.737Z,1.68
2019-03-08T00:56:03.004Z,1.71
2019-03-08T01:01:10.827Z,1.53
2019-03-08T01:06:17.913Z,1.55
2019-03-08T01:11:24.993Z,1.76
2019-03-08T01:16:33.023Z,1.74
2019-03-08T01:21:41.002Z,1.90
2019-03-08T01:26:48.761Z,1.71
2019-03-08T01:31:55.891Z,1.83
2019-03-08T01:37:03.106Z,1.88
2019-03-08T01:42:10.240Z,2.02
2019-03-08T01:47:17.613Z,1.86
2019-03-08T01:52:25.361Z,1.86
2019-03-08T01:57:33.235Z,1.78
2019-03-08T02:02:41.007Z,1.84
2019-03-08T02:07:48.703Z,1.76
2019-03-08T02:12:55.880Z,1.82
2019-03-08T02:18:03.054Z,1.78
2019-03-08T02:23:10.780Z,1.76
2019-03-08T02:28:18.585Z,2.07
2019-03-08T02:33:25.698Z,1.85
2019-03-08T02:38:33.008Z,2.04
2019-03-08T02:43:40.106Z,1.74
2019-03-08T02:48:47.420Z,2.02
2019-03-08T02:53:55.268Z,2.08
2019-03-08T02:59:03.044Z,2.14
2019-03-08T03:04:10.830Z,1.95
2019-03-08T03:09:18.655Z,2.07
2019-03-08T03:14:26.427Z,2.07
2019-03-08T03:19:34.054Z,2.26
2019-03-08T03:24:41.181Z,2.36
2019-03-08T03:29:48.447Z,2.31
2019-03-08T03:34:55.616Z,2.40
2019-03-08T03:40:02.876Z,2.23
2019-03-08T03:45:10.574Z,2.26
2019-03-08T03:50:18.729Z,2.28
2019-03-08T03:55:25.163Z,2.62
2019-03-08T04:00:32.829Z,2.37
2019-03-08T04:05:40.188Z,2.52
2019-03-08T04:10:47.464Z,2.63
2019-03-08T04:15:55.201Z,2.43
2019-03-08T04:21:02.789Z,1.80
2019-03-08T04:26:09.944Z,1.95
2019-03-08T04:31:17.123Z,2.12
2019-03-08T04:36:25.172Z,2.25
2019-03-08T04:41:33.010Z,2.21
2019-03-08T04:46:40.789Z,2.21
2019-03-08T04:51:47.968Z,2.27
2019-03-08T04:56:55.187Z,2.27
2019-03-08T05:02:03.037Z,2.42
2019-03-08T05:07:10.709Z,2.25
2019-03-08T05:12:18.435Z,1.94
2019-03-08T05:17:26.763Z,1.80
2019-03-08T05:22:33.978Z,1.93
2019-03-08T05:27:42.097Z,2.03
2019-03-08T05:32:49.488Z,2.04
2019-03-08T05:37:57.494Z,2.31
2019-03-08T05:43:04.976Z,2.42
2019-03-08T05:48:12.654Z,2.65
2019-03-08T05:53:21.644Z,2.82
2019-03-08T05:58:29.304Z,3.61
2019-03-08T06:03:37.068Z,3.34
2019-03-08T06:08:44.845Z,3.54
2019-03-08T06:13:52.396Z,3.37
2019-03-08T06:18:59.497Z,3.17
2019-03-08T06:24:06.613Z,3.19
2019-03-08T06:29:13.695Z,3.09
2019-03-08T06:34:20.815Z,3.14
2019-03-08T06:39:27.884Z,3.17
2019-03-08T06:44:35.020Z,3.91
2019-03-08T06:49:42.117Z,3.90
2019-03-08T06:54:49.241Z,4.09
2019-03-08T06:59:56.341Z,4.24
2019-03-08T07:05:03.493Z,4.58
2019-03-08T07:10:10.619Z,4.66
2019-03-08T07:15:17.706Z,4.75
2019-03-08T07:20:24.773Z,4.62
2019-03-08T07:25:31.850Z,4.86
2019-03-08T07:30:38.982Z,4.93
2019-03-08T07:35:46.127Z,4.63
2019-03-08T07:40:53.224Z,4.75
2019-03-08T07:46:00.286Z,4.83
2019-03-08T07:51:07.423Z,4.76
2019-03-08T07:56:14.532Z,4.72
2019-03-08T08:01:21.650Z,4.85
2019-03-08T08:06:28.828Z,4.87
2019-03-08T08:11:35.973Z,4.96
2019-03-08T08:16:43.123Z,4.68
2019-03-08T08:21:50.212Z,4.83
2019-03-08T08:26:57.422Z,4.84
2019-03-08T08:32:04.559Z,5.02
2019-03-08T08:37:11.709Z,5.23
2019-03-08T08:42:18.836Z,4.93
2019-03-08T08:47:26.284Z,4.55
2019-03-08T08:52:33.380Z,4.50
2019-03-08T08:57:40.893Z,4.41
2019-03-08T09:02:48.091Z,4.01
2019-03-08T09:07:55.334Z,4.23
2019-03-08T09:13:02.635Z,3.83
2019-03-08T09:18:09.769Z,3.82
2019-03-08T09:23:16.878Z,3.64
2019-03-08T09:28:24.166Z,3.43
2019-03-08T09:33:31.251Z,3.28
2019-03-08T09:38:38.556Z,3.52
2019-03-08T09:43:45.944Z,3.32
2019-03-08T09:48:53.403Z,3.54
2019-03-08T09:54:00.483Z,3.75
2019-03-08T09:59:07.735Z,3.33
2019-03-08T10:04:14.866Z,3.69
2019-03-08T10:09:22.210Z,3.77
2019-03-08T10:14:29.584Z,3.76
2019-03-08T10:19:37.114Z,3.79
2019-03-08T10:24:44.206Z,4.09
2019-03-08T10:29:51.538Z,3.51
2019-03-08T10:34:59.391Z,3.23
2019-03-08T10:40:06.598Z,3.35
2019-03-08T10:45:13.796Z,3.20
2019-03-08T10:50:20.880Z,3.13
2019-03-08T10:55:28.137Z,3.41
2019-03-08T11:00:35.241Z,3.26
2019-03-08T11:05:42.391Z,3.06
2019-03-08T11:10:49.504Z,3.31
2019-03-08T11:15:56.638Z,3.24
2019-03-08T11:21:03.761Z,3.36
2019-03-08T11:26:10.901Z,3.39
2019-03-08T11:31:18.083Z,3.58
2019-03-08T11:36:25.366Z,3.56
2019-03-08T11:41:32.673Z,3.03
2019-03-08T11:46:39.979Z,3.06
2019-03-08T11:51:47.160Z,3.15
2019-03-08T11:56:56.323Z,2.90
2019-03-08T12:02:01.129Z,2.57
2019-03-08T12:07:08.310Z,2.60
2019-03-08T12:12:15.459Z,2.50
2019-03-08T12:17:22.533Z,2.35
2019-03-08T12:22:29.637Z,2.41
2019-03-08T12:27:36.757Z,2.46
2019-03-08T12:32:43.853Z,2.40
2019-03-08T12:37:50.953Z,2.41
2019-03-08T12:42:58.028Z,2.58
2019-03-08T12:48:05.184Z,3.10
2019-03-08T12:53:12.274Z,2.69
2019-03-08T12:58:19.379Z,2.71
2019-03-08T13:03:26.472Z,2.91
2019-03-08T13:08:33.564Z,2.77
2019-03-08T13:13:40.861Z,2.77
2019-03-08T13:18:47.978Z,2.84
2019-03-08T13:23:55.127Z,3.09
2019-03-08T13:29:02.278Z,3.11
2019-03-08T13:34:09.361Z,3.21
2019-03-08T13:39:16.525Z,3.32
2019-03-08T13:44:23.670Z,2.86
2019-03-08T13:49:30.792Z,2.60
2019-03-08T13:54:37.955Z,2.93
2019-03-08T13:59:45.118Z,2.95
2019-03-08T14:04:52.264Z,3.01
2019-03-08T14:09:59.372Z,3.09
2019-03-08T14:15:06.473Z,2.99
2019-03-08T14:20:13.731Z,2.98
2019-03-08T14:25:21.372Z,2.85
2019-03-08T14:35:35.155Z,2.26
2019-03-08T14:40:43.332Z,2.29
2019-03-08T14:45:50.092Z,2.41
2019-03-08T14:50:57.826Z,2.26
2019-03-08T14:56:06.732Z,2.20
2019-03-08T15:01:15.402Z,2.20
2019-03-08T15:06:23.257Z,2.35
2019-03-08T15:11:32.376Z,2.20
2019-03-08T15:16:40.071Z,2.12
2019-03-08T15:21:48.751Z,2.12
2019-03-08T15:26:54.794Z,2.10
2019-03-08T15:32:03.316Z,2.17
2019-03-08T15:37:12.205Z,1.94
2019-03-08T15:42:20.480Z,2.14
2019-03-08T15:47:32.574Z,1.97
2019-03-08T15:52:37.879Z,2.33
2019-03-08T15:57:46.920Z,2.54
2019-03-08T16:02:56.442Z,2.18
2019-03-08T16:08:06.255Z,2.09
2019-03-08T16:13:15.960Z,2.14
2019-03-08T16:18:25.083Z,2.36
2019-03-08T16:23:33.479Z,1.56
2019-03-08T16:28:42.041Z,1.81
2019-03-08T16:33:55.826Z,1.55
2019-03-08T16:38:55.334Z,1.59
2019-03-08T16:44:04.107Z,1.54
2019-03-08T16:49:14.652Z,1.73
2019-03-08T16:54:22.211Z,2.08
2019-03-08T16:59:30.773Z,1.96
2019-03-08T17:04:39.796Z,1.88
2019-03-08T17:09:48.505Z,1.95
2019-03-08T17:14:56.967Z,1.97
2019-03-08T17:20:04.623Z,2.00
2019-03-08T17:25:13.718Z,2.08
2019-03-08T17:30:22.482Z,2.32
2019-03-08T17:35:31.516Z,2.06
2019-03-08T17:40:39.712Z,2.44
2019-03-08T17:45:48.092Z,3.82
2019-03-08T17:50:56.264Z,3.21
2019-03-08T17:56:05.615Z,2.34
2019-03-08T18:01:14.025Z,2.53
2019-03-08T18:06:21.265Z,2.54
2019-03-08T18:11:28.757Z,2.59
2019-03-08T18:16:35.904Z,2.61
2019-03-08T18:21:42.982Z,2.19
2019-03-08T18:26:50.074Z,2.38
2019-03-08T18:31:57.249Z,2.44
2019-03-08T18:37:04.373Z,2.29
2019-03-08T18:42:11.553Z,2.25
2019-03-08T18:47:18.672Z,2.28
2019-03-08T18:52:25.795Z,2.25
2019-03-08T18:57:37.878Z,2.23
2019-03-08T19:02:35.419Z,2.36
2019-03-08T19:07:42.581Z,2.60
2019-03-08T19:12:49.748Z,2.46
2019-03-08T19:17:56.839Z,2.44
2019-03-08T19:23:04.009Z,2.35
2019-03-08T19:28:11.163Z,2.34
2019-03-08T19:33:18.396Z,2.61
2019-03-08T19:38:25.556Z,2.67
2019-03-08T19:43:32.705Z,3.28
2019-03-08T19:48:39.835Z,2.80
2019-03-08T19:53:46.940Z,4.06
2019-03-08T19:58:54.011Z,6.66
2019-03-08T20:04:01.224Z,6.99
2019-03-08T20:09:08.594Z,5.10
2019-03-08T20:14:15.947Z,6.22
2019-03-08T20:19:23.549Z,3.50
2019-03-08T20:24:30.811Z,3.32
2019-03-08T20:29:38.192Z,2.70
2019-03-08T20:34:45.640Z,2.61
2019-03-08T20:39:52.841Z,2.98
2019-03-08T20:44:59.988Z,3.79
2019-03-08T20:50:07.286Z,3.61
2019-03-08T20:55:14.481Z,2.93
2019-03-08T21:00:21.829Z,3.52
2019-03-08T21:05:29.020Z,3.07
2019-03-08T21:10:36.262Z,2.76
2019-03-08T21:15:43.732Z,2.88
2019-03-08T21:20:51.052Z,2.84
2019-03-08T21:25:58.198Z,2.61
2019-03-08T21:31:05.475Z,3.72
2019-03-08T21:36:12.869Z,3.29
2019-03-08T21:41:19.999Z,3.04
2019-03-08T21:46:27.158Z,3.08
2019-03-08T21:51:34.616Z,2.84
2019-03-08T21:56:41.724Z,10.63
2019-03-08T22:01:48.887Z,5.60
2019-03-08T22:06:56.096Z,3.84
2019-03-08T22:12:03.562Z,2.95
2019-03-08T22:17:10.763Z,3.28
2019-03-08T22:22:18.366Z,4.45
2019-03-08T22:27:25.688Z,4.36
2019-03-08T22:32:33.029Z,6.18
2019-03-08T22:37:40.175Z,3.75
2019-03-08T22:42:47.303Z,7.68
2019-03-08T22:47:54.390Z,4.55
2019-03-08T22:53:01.486Z,3.88
2019-03-08T22:58:08.942Z,2.90
2019-03-08T23:03:16.266Z,2.62
2019-03-08T23:08:23.378Z,2.58
2019-03-08T23:13:30.502Z,2.58
2019-03-08T23:18:37.651Z,2.47
2019-03-08T23:23:44.780Z,2.52
2019-03-08T23:28:52.199Z,2.38
2019-03-08T23:33:59.331Z,2.17
2019-03-08T23:39:06.472Z,2.32
2019-03-08T23:44:13.599Z,2.23
2019-03-08T23:49:20.699Z,2.26
2019-03-08T23:54:27.839Z,2.12
2019-03-08T23:59:34.945Z,2.10
